Time;durP1;ratioP1;P1;durP2;ratioP2;P2;SDS_P1;SDS_P2;PMS_P1;PMS_P2;Temp;Humidity;BMP_temperature;BMP_pressure;BME280_temperature;BME280_humidity;BME280_pressure;Samples;Min_cycle;Max_cycle;Signal;HPM_P1;HPM_P2
2021/11/26 00:01:21;;;;;;;;;;;14.40;99.90;;;;;;5117520;27;879;-52
2021/11/26 00:03:47;;;;;;;;;;;14.40;99.90;;;;;;5137216;27;782;-52
2021/11/26 00:06:14;;;;;;;;;;;14.40;99.90;;;;;;5136602;27;958;-53
2021/11/26 00:08:45;;;;;;;;;;;14.40;99.90;;;;;;5136813;27;812;-52
2021/11/26 00:11:12;;;;;;;;;;;14.30;99.90;;;;;;5118835;27;938;-52
2021/11/26 00:13:45;;;;;;;;;;;14.30;99.90;;;;;;5117698;27;830;-52
2021/11/26 00:16:18;;;;;;;;;;;14.30;99.90;;;;;;5117619;27;1905;-53
2021/11/26 00:18:50;;;;;;;;;;;14.30;99.90;;;;;;5123804;27;1222;-51
2021/11/26 00:21:16;;;;;;;;;;;14.30;99.90;;;;;;5116948;27;1068;-51
2021/11/26 00:23:43;;;;;;;;;;;14.20;99.90;;;;;;5121705;27;973;-51
2021/11/26 00:26:10;;;;;;;;;;;14.20;99.90;;;;;;5127192;27;865;-53
2021/11/26 00:28:37;;;;;;;;;;;14.20;99.90;;;;;;5136311;27;827;-52
2021/11/26 00:31:03;;;;;;;;;;;14.20;99.90;;;;;;5133819;27;1338;-52
2021/11/26 00:33:29;;;;;;;;;;;14.10;99.90;;;;;;5135970;27;938;-53
2021/11/26 00:35:55;;;;;;;;;;;14.20;99.90;;;;;;5130868;27;1969;-53
2021/11/26 00:38:21;;;;;;;;;;;14.10;99.90;;;;;;5118562;27;863;-53
2021/11/26 00:40:48;;;;;;;;;;;14.10;99.90;;;;;;5117632;27;907;-53
2021/11/26 00:43:15;;;;;;;;;;;14.10;99.90;;;;;;5117446;28;795;-52
2021/11/26 00:45:42;;;;;;;;;;;14.10;99.90;;;;;;5082034;28;1020;-52
2021/11/26 00:48:08;;;;;;;;;;;14.10;99.90;;;;;;5117514;28;977;-53
2021/11/26 00:50:35;;;;;;;;;;;14.00;99.90;;;;;;5117030;28;807;-53
2021/11/26 00:53:02;;;;;;;;;;;14.00;99.90;;;;;;5116563;28;802;-53
2021/11/26 00:55:28;;;;;;;;;;;14.00;99.90;;;;;;5121361;28;1103;-52
2021/11/26 00:57:54;;;;;;;;;;;14.00;99.90;;;;;;5135854;28;1973;-53
2021/11/26 01:00:21;;;;;;;;;;;14.00;99.90;;;;;;5121213;28;1342;-52
2021/11/26 01:02:49;;;;;;;;;;;14.00;99.90;;;;;;5116580;28;954;-52
2021/11/26 01:05:16;;;;;;;;;;;13.90;99.90;;;;;;5098566;28;846;-53
2021/11/26 01:07:44;;;;;;;;;;;13.90;99.90;;;;;;5094635;28;717;-55
2021/11/26 01:10:12;;;;;;;;;;;13.90;99.90;;;;;;5117189;28;760;-53
2021/11/26 01:12:39;;;;;;;;;;;13.90;99.90;;;;;;5098725;28;908;-53
2021/11/26 01:15:06;;;;;;;;;;;13.90;99.90;;;;;;5116378;28;1032;-54
2021/11/26 01:17:32;;;;;;;;;;;13.90;99.90;;;;;;5117219;28;1902;-53
2021/11/26 01:19:58;;;;;;;;;;;13.90;99.90;;;;;;5117378;28;886;-52
2021/11/26 01:22:24;;;;;;;;;;;13.80;99.90;;;;;;5098764;28;899;-52
2021/11/26 01:24:50;;;;;;;;;;;13.80;99.90;;;;;;5116923;28;859;-53
2021/11/26 01:27:18;;;;;;;;;;;13.80;99.90;;;;;;5130243;28;919;-53
2021/11/26 01:29:47;;;;;;;;;;;13.80;99.90;;;;;;5116733;28;1488;-52
2021/11/26 01:32:14;;;;;;;;;;;13.80;99.90;;;;;;5117145;28;970;-52
2021/11/26 01:34:40;;;;;;;;;;;13.80;99.90;;;;;;5122432;28;851;-51
2021/11/26 01:37:06;;;;;;;;;;;13.80;99.90;;;;;;5074402;28;1902;-50
2021/11/26 01:39:33;;;;;;;;;;;13.80;99.90;;;;;;5122448;28;1341;-53
2021/11/26 01:42:00;;;;;;;;;;;13.80;99.90;;;;;;5116801;28;846;-51
2021/11/26 01:44:26;;;;;;;;;;;13.80;99.90;;;;;;5118076;28;856;-51
2021/11/26 01:46:53;;;;;;;;;;;13.70;99.90;;;;;;5136294;28;890;-52
2021/11/26 01:49:21;;;;;;;;;;;13.70;99.90;;;;;;5135349;28;857;-52
2021/11/26 01:51:48;;;;;;;;;;;13.70;99.90;;;;;;5134724;28;900;-51
2021/11/26 01:54:14;;;;;;;;;;;13.70;99.90;;;;;;5099950;28;1140;-51
2021/11/26 01:56:40;;;;;;;;;;;13.70;99.90;;;;;;5134465;28;1905;-51
2021/11/26 01:59:06;;;;;;;;;;;13.60;99.90;;;;;;5134782;28;1155;-51
2021/11/26 02:01:32;;;;;;;;;;;13.60;99.90;;;;;;5135566;27;789;-51
2021/11/26 02:03:58;;;;;;;;;;;13.60;99.90;;;;;;5126652;27;1260;-52
2021/11/26 02:06:24;;;;;;;;;;;13.60;99.90;;;;;;5124386;27;871;-51
2021/11/26 02:08:51;;;;;;;;;;;13.60;99.90;;;;;;5121083;27;872;-51
2021/11/26 02:11:19;;;;;;;;;;;13.60;99.90;;;;;;5120207;27;800;-51
2021/11/26 02:13:44;;;;;;;;;;;13.60;99.90;;;;;;5120114;27;815;-51
2021/11/26 02:16:10;;;;;;;;;;;13.60;99.90;;;;;;5084535;28;1898;-52
2021/11/26 02:18:37;;;;;;;;;;;13.50;99.90;;;;;;5119217;27;1018;-51
2021/11/26 02:21:03;;;;;;;;;;;13.60;99.90;;;;;;5119165;27;790;-52
2021/11/26 02:23:29;;;;;;;;;;;13.50;99.90;;;;;;5101813;28;1210;-53
2021/11/26 02:25:56;;;;;;;;;;;13.60;99.90;;;;;;5127540;27;1111;-52
2021/11/26 02:28:23;;;;;;;;;;;13.50;99.90;;;;;;5138715;27;878;-54
2021/11/26 02:30:50;;;;;;;;;;;13.50;99.90;;;;;;5138859;27;918;-52
2021/11/26 02:33:22;;;;;;;;;;;13.50;99.90;;;;;;5137897;27;885;-54
2021/11/26 02:35:51;;;;;;;;;;;13.50;99.90;;;;;;5137461;27;1088;-52
2021/11/26 02:38:20;;;;;;;;;;;13.50;99.90;;;;;;5137840;27;918;-53
2021/11/26 02:40:47;;;;;;;;;;;13.50;99.90;;;;;;5137860;27;815;-53
2021/11/26 02:43:13;;;;;;;;;;;13.50;99.90;;;;;;5120357;27;845;-51
2021/11/26 02:45:39;;;;;;;;;;;13.50;99.90;;;;;;5138173;27;823;-51
2021/11/26 02:48:06;;;;;;;;;;;13.50;99.90;;;;;;5137739;27;959;-52
2021/11/26 02:50:32;;;;;;;;;;;13.40;99.90;;;;;;5138002;27;843;-53
2021/11/26 02:52:59;;;;;;;;;;;13.50;99.90;;;;;;5138537;27;795;-53
2021/11/26 02:55:27;;;;;;;;;;;13.40;99.90;;;;;;5137000;27;1237;-53
2021/11/26 02:57:53;;;;;;;;;;;13.40;99.90;;;;;;5138246;27;1969;-52
2021/11/26 03:00:21;;;;;;;;;;;13.40;99.90;;;;;;5137923;27;785;-51
2021/11/26 03:02:47;;;;;;;;;;;13.40;99.90;;;;;;5138320;27;964;-52
2021/11/26 03:05:14;;;;;;;;;;;13.40;99.90;;;;;;5137652;27;993;-53
2021/11/26 03:07:40;;;;;;;;;;;13.40;99.90;;;;;;5137569;27;853;-53
2021/11/26 03:10:06;;;;;;;;;;;13.40;99.90;;;;;;5137732;27;863;-53
2021/11/26 03:12:33;;;;;;;;;;;13.30;99.90;;;;;;5137878;27;848;-54
2021/11/26 03:14:58;;;;;;;;;;;13.30;99.90;;;;;;5119082;27;890;-52
2021/11/26 03:17:27;;;;;;;;;;;13.30;99.90;;;;;;5118295;27;1910;-52
2021/11/26 03:19:54;;;;;;;;;;;13.30;99.90;;;;;;5118233;27;960;-52
2021/11/26 03:22:20;;;;;;;;;;;13.30;99.90;;;;;;5118978;27;846;-52
2021/11/26 03:24:47;;;;;;;;;;;13.30;99.90;;;;;;5119048;27;859;-52
2021/11/26 03:27:13;;;;;;;;;;;13.30;99.90;;;;;;5136709;27;874;-52
2021/11/26 03:29:39;;;;;;;;;;;13.30;99.90;;;;;;5136940;27;966;-53
2021/11/26 03:32:05;;;;;;;;;;;13.30;99.90;;;;;;5137753;27;892;-53
2021/11/26 03:34:31;;;;;;;;;;;13.30;99.90;;;;;;5137494;27;744;-52
2021/11/26 03:36:57;;;;;;;;;;;13.30;99.90;;;;;;5137050;27;1894;-52
2021/11/26 03:39:23;;;;;;;;;;;13.20;99.90;;;;;;5118847;27;900;-51
2021/11/26 03:41:49;;;;;;;;;;;13.20;99.90;;;;;;5136778;27;969;-51
2021/11/26 03:44:15;;;;;;;;;;;13.20;99.90;;;;;;5101641;27;1090;-52
2021/11/26 03:46:41;;;;;;;;;;;13.20;99.90;;;;;;5131184;27;1308;-52
2021/11/26 03:49:07;;;;;;;;;;;13.20;99.90;;;;;;5118358;27;847;-51
2021/11/26 03:51:33;;;;;;;;;;;13.20;99.90;;;;;;5117912;27;757;-53
2021/11/26 03:53:59;;;;;;;;;;;13.20;99.90;;;;;;5118380;28;1258;-53
2021/11/26 03:56:26;;;;;;;;;;;13.20;99.90;;;;;;5129037;27;1902;-52
2021/11/26 03:58:53;;;;;;;;;;;13.20;99.90;;;;;;5137230;27;795;-51
2021/11/26 04:01:19;;;;;;;;;;;13.20;99.90;;;;;;5137497;27;760;-51
2021/11/26 04:03:45;;;;;;;;;;;13.20;99.90;;;;;;5137136;27;827;-52
2021/11/26 04:06:11;;;;;;;;;;;13.10;99.90;;;;;;5136547;27;854;-52
2021/11/26 04:08:37;;;;;;;;;;;13.10;99.90;;;;;;5136777;27;805;-51
2021/11/26 04:11:03;;;;;;;;;;;13.10;99.90;;;;;;5136662;27;815;-50
2021/11/26 04:13:29;;;;;;;;;;;13.10;99.90;;;;;;5136606;27;903;-50
2021/11/26 04:16:02;;;;;;;;;;;13.10;99.90;;;;;;5136681;27;902;-52
2021/11/26 04:18:29;;;;;;;;;;;13.10;99.90;;;;;;5117798;27;1961;-52
2021/11/26 04:20:56;;;;;;;;;;;13.10;99.90;;;;;;5117261;27;963;-52
2021/11/26 04:23:23;;;;;;;;;;;13.10;99.90;;;;;;5082440;28;865;-52
2021/11/26 04:25:49;;;;;;;;;;;13.10;99.90;;;;;;5124175;27;908;-52
2021/11/26 04:28:15;;;;;;;;;;;13.10;99.90;;;;;;5136802;27;780;-52
2021/11/26 04:30:41;;;;;;;;;;;13.10;99.90;;;;;;5136539;27;810;-52
2021/11/26 04:33:07;;;;;;;;;;;13.00;99.90;;;;;;5136321;27;1533;-52
2021/11/26 04:35:33;;;;;;;;;;;13.00;99.90;;;;;;5135967;27;865;-51
2021/11/26 04:38:00;;;;;;;;;;;13.00;99.90;;;;;;5136271;27;1910;-52
2021/11/26 04:40:26;;;;;;;;;;;13.00;99.90;;;;;;5136105;27;1041;-52
2021/11/26 04:42:52;;;;;;;;;;;13.00;99.90;;;;;;5076309;28;1075;-52
2021/11/26 04:45:18;;;;;;;;;;;13.00;99.90;;;;;;5074976;28;981;-50
2021/11/26 04:47:44;;;;;;;;;;;13.00;99.90;;;;;;5075175;28;816;-50
2021/11/26 04:50:11;;;;;;;;;;;13.00;99.90;;;;;;5091788;28;842;-51
2021/11/26 04:52:37;;;;;;;;;;;13.00;99.90;;;;;;5076995;28;1011;-51
2021/11/26 04:55:03;;;;;;;;;;;13.00;99.90;;;;;;5076125;28;1258;-52
2021/11/26 04:57:29;;;;;;;;;;;13.00;99.90;;;;;;5074596;28;1967;-52
2021/11/26 04:59:57;;;;;;;;;;;12.90;99.90;;;;;;5074941;28;887;-51
2021/11/26 05:02:23;;;;;;;;;;;12.90;99.90;;;;;;5074856;28;978;-51
2021/11/26 05:04:50;;;;;;;;;;;12.90;99.90;;;;;;5074582;28;862;-51
2021/11/26 05:07:18;;;;;;;;;;;12.90;99.90;;;;;;5057997;28;906;-52
2021/11/26 05:09:46;;;;;;;;;;;12.90;99.90;;;;;;5075037;28;843;-50
2021/11/26 05:12:13;;;;;;;;;;;12.90;99.90;;;;;;5057523;28;1131;-51
2021/11/26 05:14:39;;;;;;;;;;;12.90;99.90;;;;;;5109407;28;985;-50
2021/11/26 05:17:05;;;;;;;;;;;12.90;99.90;;;;;;5116855;28;1964;-50
2021/11/26 05:19:31;;;;;;;;;;;12.90;99.90;;;;;;5116374;28;897;-52
2021/11/26 05:21:59;;;;;;;;;;;12.90;99.90;;;;;;5081620;28;1017;-52
2021/11/26 05:24:26;;;;;;;;;;;12.90;99.90;;;;;;5099129;28;828;-52
2021/11/26 05:26:52;;;;;;;;;;;12.90;99.90;;;;;;5132364;28;840;-50
2021/11/26 05:29:18;;;;;;;;;;;12.90;99.90;;;;;;5135681;28;767;-50
2021/11/26 05:31:44;;;;;;;;;;;12.90;99.90;;;;;;5135069;28;876;-50
2021/11/26 05:34:10;;;;;;;;;;;12.90;99.90;;;;;;5136001;28;919;-51
2021/11/26 05:36:36;;;;;;;;;;;12.90;99.90;;;;;;5135590;27;1979;-52
2021/11/26 05:39:03;;;;;;;;;;;12.90;99.90;;;;;;5139787;27;805;-50
2021/11/26 05:41:29;;;;;;;;;;;12.90;99.90;;;;;;5121977;27;796;-50
2021/11/26 05:43:55;;;;;;;;;;;12.90;99.90;;;;;;5139420;27;863;-52
2021/11/26 05:46:21;;;;;;;;;;;12.90;99.90;;;;;;5120029;27;1158;-52
2021/11/26 05:48:48;;;;;;;;;;;12.90;99.90;;;;;;5139599;27;760;-51
2021/11/26 05:51:14;;;;;;;;;;;12.90;99.90;;;;;;5139589;27;849;-52
2021/11/26 05:53:40;;;;;;;;;;;12.90;99.90;;;;;;5139316;27;831;-51
2021/11/26 05:56:07;;;;;;;;;;;12.90;99.90;;;;;;5137152;27;1253;-52
2021/11/26 05:58:33;;;;;;;;;;;12.90;99.90;;;;;;5121967;27;1969;-51
2021/11/26 06:01:00;;;;;;;;;;;13.00;99.90;;;;;;5120024;27;905;-52
2021/11/26 06:03:26;;;;;;;;;;;13.10;99.90;;;;;;5120198;27;890;-51
2021/11/26 06:05:52;;;;;;;;;;;13.10;99.90;;;;;;5123066;27;1381;-52
2021/11/26 06:08:18;;;;;;;;;;;13.20;99.90;;;;;;5130650;27;794;-52
2021/11/26 06:10:44;;;;;;;;;;;13.30;99.90;;;;;;5120538;27;841;-50
2021/11/26 06:13:10;;;;;;;;;;;13.50;99.90;;;;;;5120122;27;858;-52
2021/11/26 06:15:37;;;;;;;;;;;13.60;99.90;;;;;;5119589;27;957;-52
2021/11/26 06:18:04;;;;;;;;;;;13.80;99.90;;;;;;5119752;28;1902;-52
2021/11/26 06:20:30;;;;;;;;;;;13.90;99.90;;;;;;5119359;27;1347;-51
2021/11/26 06:22:56;;;;;;;;;;;14.10;99.90;;;;;;5131077;27;1071;-53
2021/11/26 06:25:23;;;;;;;;;;;14.30;99.90;;;;;;5097392;28;977;-51
2021/11/26 06:27:50;;;;;;;;;;;14.40;99.90;;;;;;5099068;28;1075;-53
2021/11/26 06:30:16;;;;;;;;;;;14.60;99.90;;;;;;5097675;28;812;-53
2021/11/26 06:32:43;;;;;;;;;;;14.80;99.90;;;;;;5097507;28;836;-51
2021/11/26 06:35:10;;;;;;;;;;;14.90;99.90;;;;;;5097740;28;1117;-53
2021/11/26 06:37:38;;;;;;;;;;;15.10;99.90;;;;;;5097413;28;1910;-53
2021/11/26 06:40:06;;;;;;;;;;;15.20;99.90;;;;;;5100088;28;1113;-53
2021/11/26 06:42:34;;;;;;;;;;;15.30;99.90;;;;;;5097392;28;892;-51
2021/11/26 06:45:00;;;;;;;;;;;15.50;99.90;;;;;;5097385;28;906;-53
2021/11/26 06:47:26;;;;;;;;;;;15.60;99.90;;;;;;5097296;28;919;-53
2021/11/26 06:49:52;;;;;;;;;;;15.70;99.90;;;;;;5097111;28;950;-53
2021/11/26 06:52:18;;;;;;;;;;;15.70;99.90;;;;;;5096840;28;972;-53
2021/11/26 06:54:44;;;;;;;;;;;15.80;99.90;;;;;;5116043;28;987;-53
2021/11/26 06:57:10;;;;;;;;;;;15.80;99.90;;;;;;5115691;27;1913;-53
2021/11/26 06:59:36;;;;;;;;;;;15.80;99.90;;;;;;5101178;28;1006;-51
2021/11/26 07:02:02;;;;;;;;;;;15.80;99.90;;;;;;5119272;27;862;-51
2021/11/26 07:04:29;;;;;;;;;;;15.80;99.90;;;;;;5119047;27;832;-53
2021/11/26 07:06:55;;;;;;;;;;;15.70;99.90;;;;;;5118406;27;866;-53
2021/11/26 07:09:22;;;;;;;;;;;15.70;99.90;;;;;;5119206;27;759;-53
2021/11/26 07:11:49;;;;;;;;;;;15.60;99.90;;;;;;5119053;27;803;-52
2021/11/26 07:14:15;;;;;;;;;;;15.60;99.90;;;;;;5119312;27;1035;-51
2021/11/26 07:16:41;;;;;;;;;;;15.50;99.90;;;;;;5120058;27;1964;-53
2021/11/26 07:19:07;;;;;;;;;;;15.40;99.90;;;;;;5118961;27;752;-51
2021/11/26 07:21:33;;;;;;;;;;;15.30;99.90;;;;;;5118003;27;959;-52
2021/11/26 07:24:01;;;;;;;;;;;15.30;99.90;;;;;;5118509;27;947;-52
2021/11/26 07:26:27;;;;;;;;;;;15.20;99.90;;;;;;5134059;27;800;-52
2021/11/26 07:28:53;;;;;;;;;;;15.20;99.90;;;;;;5117823;27;1035;-52
2021/11/26 07:31:19;;;;;;;;;;;15.10;99.90;;;;;;5118662;27;923;-53
2021/11/26 07:33:45;;;;;;;;;;;15.00;99.90;;;;;;5118401;28;857;-53
2021/11/26 07:36:14;;;;;;;;;;;15.00;99.90;;;;;;5118203;27;1148;-51
2021/11/26 07:38:40;;;;;;;;;;;14.90;99.90;;;;;;5083144;28;1960;-52
2021/11/26 07:41:06;;;;;;;;;;;14.90;99.90;;;;;;5118150;27;977;-52
2021/11/26 07:43:32;;;;;;;;;;;14.80;99.90;;;;;;5118110;27;833;-51
2021/11/26 07:46:00;;;;;;;;;;;14.80;99.90;;;;;;5100045;27;888;-51
2021/11/26 07:48:26;;;;;;;;;;;14.70;99.90;;;;;;5118619;27;783;-51
2021/11/26 07:50:55;;;;;;;;;;;14.60;99.90;;;;;;5117678;27;1118;-52
2021/11/26 07:53:22;;;;;;;;;;;14.60;99.90;;;;;;5122954;27;1203;-53
2021/11/26 07:55:49;;;;;;;;;;;14.50;99.90;;;;;;5116846;27;1036;-53
2021/11/26 07:58:16;;;;;;;;;;;14.50;99.90;;;;;;5117682;27;1966;-51
2021/11/26 08:00:42;;;;;;;;;;;14.50;99.90;;;;;;5117706;27;897;-52
2021/11/26 08:03:08;;;;;;;;;;;14.40;99.90;;;;;;5117660;27;942;-51
2021/11/26 08:05:34;;;;;;;;;;;14.40;99.90;;;;;;5117464;28;875;-51
2021/11/26 08:08:01;;;;;;;;;;;14.40;99.90;;;;;;5099718;28;865;-52
2021/11/26 08:10:27;;;;;;;;;;;14.40;99.90;;;;;;5136821;27;889;-51
2021/11/26 08:12:55;;;;;;;;;;;14.40;99.90;;;;;;5128770;27;1764;-53
2021/11/26 08:15:21;;;;;;;;;;;14.30;99.90;;;;;;5118453;27;1694;-51
2021/11/26 08:17:47;;;;;;;;;;;14.30;99.90;;;;;;5119997;27;1978;-51
2021/11/26 08:20:15;;;;;;;;;;;14.30;99.90;;;;;;5117985;27;829;-52
2021/11/26 08:22:41;;;;;;;;;;;14.40;99.90;;;;;;5117483;28;942;-52
2021/11/26 08:25:08;;;;;;;;;;;14.40;99.90;;;;;;5119344;27;820;-53
2021/11/26 08:27:35;;;;;;;;;;;14.30;99.90;;;;;;5117079;27;867;-54
2021/11/26 08:30:02;;;;;;;;;;;14.40;99.90;;;;;;5125757;27;1633;-51
2021/11/26 08:32:29;;;;;;;;;;;14.40;99.90;;;;;;5117473;27;950;-53
2021/11/26 08:34:54;;;;;;;;;;;14.40;99.90;;;;;;5116954;28;862;-54
2021/11/26 08:37:20;;;;;;;;;;;14.40;99.90;;;;;;5117118;27;1906;-53
2021/11/26 08:39:48;;;;;;;;;;;14.40;99.90;;;;;;5117552;27;1443;-53
2021/11/26 08:42:14;;;;;;;;;;;14.50;99.90;;;;;;5098760;28;897;-53
2021/11/26 08:44:40;;;;;;;;;;;14.50;99.90;;;;;;5125989;27;1381;-53
2021/11/26 08:47:06;;;;;;;;;;;14.50;99.90;;;;;;5126127;27;1637;-53
2021/11/26 08:49:32;;;;;;;;;;;14.50;99.90;;;;;;5117574;28;780;-53
2021/11/26 08:51:58;;;;;;;;;;;14.50;99.90;;;;;;5117509;27;786;-53
2021/11/26 08:54:25;;;;;;;;;;;14.50;99.90;;;;;;5125457;27;1025;-53
2021/11/26 08:56:55;;;;;;;;;;;14.50;99.90;;;;;;5135734;27;1910;-52
2021/11/26 08:59:22;;;;;;;;;;;14.50;99.90;;;;;;5124898;28;1370;-53
2021/11/26 09:01:50;;;;;;;;;;;14.50;99.90;;;;;;5122502;28;1521;-53
2021/11/26 09:04:18;;;;;;;;;;;14.60;99.90;;;;;;5099378;28;737;-53
2021/11/26 09:06:44;;;;;;;;;;;14.60;99.90;;;;;;5117248;28;965;-53
2021/11/26 09:09:10;;;;;;;;;;;14.60;99.90;;;;;;5116491;28;1125;-53
2021/11/26 09:11:36;;;;;;;;;;;14.60;99.90;;;;;;5118607;27;1052;-53
2021/11/26 09:14:05;;;;;;;;;;;14.60;99.90;;;;;;5121245;27;775;-53
2021/11/26 09:16:32;;;;;;;;;;;14.60;99.90;;;;;;5103521;27;1049;-53
2021/11/26 09:18:58;;;;;;;;;;;14.60;99.90;;;;;;5121280;27;1925;-52
2021/11/26 09:21:24;;;;;;;;;;;14.60;99.90;;;;;;5122392;27;1634;-53
2021/11/26 09:23:51;;;;;;;;;;;14.60;99.90;;;;;;5121101;27;1242;-54
2021/11/26 09:26:18;;;;;;;;;;;14.60;99.90;;;;;;5130952;27;840;-54
2021/11/26 09:28:44;;;;;;;;;;;14.50;99.90;;;;;;5138945;27;795;-53
2021/11/26 09:31:10;;;;;;;;;;;14.60;99.90;;;;;;5140325;27;779;-53
2021/11/26 09:33:36;;;;;;;;;;;14.60;99.90;;;;;;5135942;27;879;-53
2021/11/26 09:36:04;;;;;;;;;;;14.70;99.90;;;;;;5139567;27;855;-54
2021/11/26 09:38:34;;;;;;;;;;;14.70;99.90;;;;;;5138380;27;1909;-53
2021/11/26 09:41:01;;;;;;;;;;;14.90;99.90;;;;;;5102452;28;980;-53
2021/11/26 09:43:29;;;;;;;;;;;15.00;99.90;;;;;;5124336;27;1012;-53
2021/11/26 09:46:01;;;;;;;;;;;15.10;99.90;;;;;;5131165;27;1256;-53
2021/11/26 09:48:28;;;;;;;;;;;15.30;99.90;;;;;;5132960;27;1256;-53
2021/11/26 09:50:58;;;;;;;;;;;15.40;99.90;;;;;;5115059;27;1269;-53
2021/11/26 09:53:27;;;;;;;;;;;15.50;99.90;;;;;;5094372;27;1187;-53
2021/11/26 09:56:00;;;;;;;;;;;15.60;99.90;;;;;;5110061;28;1588;-54
2021/11/26 09:58:28;;;;;;;;;;;15.80;99.90;;;;;;5114094;28;1971;-52
2021/11/26 10:00:57;;;;;;;;;;;15.80;99.90;;;;;;5113170;28;1031;-52
2021/11/26 10:03:44;;;;;;;;;;;15.90;99.90;;;;;;5109516;28;1059;-52
2021/11/26 10:06:36;;;;;;;;;;;15.90;99.90;;;;;;5109846;28;1210;-52
2021/11/26 10:09:05;;;;;;;;;;;16.00;99.90;;;;;;5109300;28;1272;-52
2021/11/26 10:11:37;;;;;;;;;;;16.00;99.90;;;;;;5112641;28;1364;-52
2021/11/26 10:14:33;;;;;;;;;;;16.10;99.90;;;;;;5113717;28;1082;-52
2021/11/26 10:17:02;;;;;;;;;;;16.20;99.90;;;;;;5092882;28;1484;-52
2021/11/26 10:19:39;;;;;;;;;;;16.30;99.90;;;;;;5109760;28;1257;-52
2021/11/26 10:22:14;;;;;;;;;;;16.30;99.90;;;;;;5113981;28;1168;-51
2021/11/26 10:24:40;;;;;;;;;;;16.30;99.90;;;;;;5112823;28;1300;-51
2021/11/26 10:27:06;;;;;;;;;;;16.30;99.90;;;;;;5115229;28;1195;-52
2021/11/26 10:29:34;;;;;;;;;;;16.30;99.90;;;;;;5115182;28;1391;-52
2021/11/26 10:32:11;;;;;;;;;;;16.40;99.90;;;;;;5115660;28;1106;-52
2021/11/26 10:34:41;;;;;;;;;;;16.40;99.90;;;;;;5112529;28;1208;-52
2021/11/26 10:37:19;;;;;;;;;;;16.50;99.90;;;;;;5111585;28;1894;-52
2021/11/26 10:39:48;;;;;;;;;;;16.50;99.90;;;;;;5090823;28;1441;-54
2021/11/26 10:42:24;;;;;;;;;;;16.60;99.90;;;;;;5112267;28;1300;-54
2021/11/26 10:45:06;;;;;;;;;;;16.60;99.90;;;;;;5112754;28;1410;-54
2021/11/26 10:47:55;;;;;;;;;;;16.60;99.90;;;;;;5109935;28;1087;-53
2021/11/26 11:01:13;;;;;;;;;;;16.80;99.90;;;;;;5117782;27;988;-53
2021/11/26 11:03:39;;;;;;;;;;;16.80;99.90;;;;;;5117926;27;796;-53
2021/11/26 11:06:18;;;;;;;;;;;16.80;99.90;;;;;;5121577;27;1279;-51
2021/11/26 11:08:45;;;;;;;;;;;16.90;99.90;;;;;;5130611;27;1109;-51
2021/11/26 11:11:11;;;;;;;;;;;17.00;99.90;;;;;;5132424;27;1365;-52
2021/11/26 11:13:37;;;;;;;;;;;17.00;99.90;;;;;;5126524;27;1351;-52
2021/11/26 11:16:10;;;;;;;;;;;17.10;99.90;;;;;;5133148;27;1311;-51
2021/11/26 11:18:37;;;;;;;;;;;17.10;99.90;;;;;;5131296;27;1972;-52
2021/11/26 11:21:08;;;;;;;;;;;17.10;99.90;;;;;;5130136;27;1332;-52
2021/11/26 11:23:35;;;;;;;;;;;17.20;99.90;;;;;;5119280;27;1173;-52
2021/11/26 11:26:04;;;;;;;;;;;17.20;99.90;;;;;;5113082;27;1309;-53
2021/11/26 11:28:36;;;;;;;;;;;17.20;99.90;;;;;;5110186;28;1022;-53
2021/11/26 11:31:03;;;;;;;;;;;17.10;99.90;;;;;;5098613;28;1334;-53
2021/11/26 11:33:31;;;;;;;;;;;17.10;99.90;;;;;;5102574;28;1225;-53
2021/11/26 11:36:02;;;;;;;;;;;17.10;99.90;;;;;;5107733;28;1209;-52
2021/11/26 11:38:30;;;;;;;;;;;17.00;99.90;;;;;;5101689;28;1898;-52
2021/11/26 11:41:05;;;;;;;;;;;17.00;99.90;;;;;;5111851;27;1231;-51
2021/11/26 11:43:46;;;;;;;;;;;16.90;99.90;;;;;;5101138;28;1153;-51
2021/11/26 11:46:13;;;;;;;;;;;16.90;99.90;;;;;;5100500;28;894;-52
2021/11/26 11:48:46;;;;;;;;;;;16.80;99.90;;;;;;5098239;28;1080;-53
2021/11/26 11:51:26;;;;;;;;;;;16.70;99.90;;;;;;5098829;28;999;-52
2021/11/26 11:54:12;;;;;;;;;;;16.80;99.90;;;;;;5107119;28;1116;-52
2021/11/26 11:56:45;;;;;;;;;;;16.90;99.90;;;;;;5128443;27;1392;-53
2021/11/26 11:59:23;;;;;;;;;;;17.00;99.90;;;;;;5129011;27;1909;-50
2021/11/26 12:01:49;;;;;;;;;;;17.00;99.90;;;;;;5119631;27;1055;-53
2021/11/26 12:04:17;;;;;;;;;;;17.00;99.90;;;;;;5121589;27;1903;-52
2021/11/26 12:06:43;;;;;;;;;;;17.00;99.90;;;;;;5121922;27;1454;-52
2021/11/26 12:09:28;;;;;;;;;;;17.00;99.90;;;;;;5124823;27;1117;-52
2021/11/26 12:12:13;;;;;;;;;;;16.90;99.90;;;;;;5124063;27;1476;-52
2021/11/26 12:14:55;;;;;;;;;;;16.90;99.90;;;;;;5134435;27;814;-52
2021/11/26 12:17:33;;;;;;;;;;;16.90;99.90;;;;;;5092206;28;1898;-52
2021/11/26 12:20:23;;;;;;;;;;;16.90;99.90;;;;;;5126931;27;1567;-52
2021/11/26 12:23:03;;;;;;;;;;;16.90;99.90;;;;;;5129886;27;1118;-52
2021/11/26 12:28:13;;;;;;;;;;;16.90;99.90;;;;;;5124095;27;1202;-54
2021/11/26 12:30:43;;;;;;;;;;;16.90;99.90;;;;;;5116313;27;974;-53
2021/11/26 12:33:17;;;;;;;;;;;16.90;99.90;;;;;;5117853;28;848;-54
2021/11/26 12:35:57;;;;;;;;;;;16.90;99.90;;;;;;5116532;27;1029;-53
2021/11/26 12:38:34;;;;;;;;;;;16.90;99.90;;;;;;5119043;27;1886;-53
2021/11/26 12:40:59;;;;;;;;;;;16.90;99.90;;;;;;5086228;28;1050;-53
2021/11/26 12:43:25;;;;;;;;;;;16.90;99.90;;;;;;5118652;27;1044;-54
2021/11/26 12:45:51;;;;;;;;;;;16.90;99.90;;;;;;5118272;28;1102;-53
2021/11/26 12:48:32;;;;;;;;;;;16.90;99.90;;;;;;5117963;27;1115;-52
2021/11/26 12:51:04;;;;;;;;;;;16.90;99.90;;;;;;5119382;27;1007;-52
2021/11/26 12:53:31;;;;;;;;;;;16.90;99.90;;;;;;5116607;27;1336;-51
2021/11/26 12:56:07;;;;;;;;;;;17.00;99.90;;;;;;5111458;28;1267;-52
2021/11/26 12:58:41;;;;;;;;;;;17.00;99.90;;;;;;5106080;28;1909;-52
2021/11/26 13:01:09;;;;;;;;;;;17.10;99.90;;;;;;5078730;28;915;-52
2021/11/26 13:03:43;;;;;;;;;;;17.10;99.90;;;;;;5114496;28;865;-52
2021/11/26 13:06:09;;;;;;;;;;;17.10;99.90;;;;;;5091911;28;1065;-54
2021/11/26 13:08:37;;;;;;;;;;;17.00;99.90;;;;;;5105939;28;1363;-54
2021/11/26 13:11:04;;;;;;;;;;;17.10;99.90;;;;;;5096759;28;889;-53
2021/11/26 13:13:33;;;;;;;;;;;17.00;99.90;;;;;;5104568;28;1036;-53
2021/11/26 13:15:59;;;;;;;;;;;16.90;99.90;;;;;;5095652;28;891;-54
2021/11/26 13:18:26;;;;;;;;;;;16.80;99.90;;;;;;5096256;28;1953;-54
2021/11/26 13:20:55;;;;;;;;;;;16.80;99.90;;;;;;5096330;28;859;-53
2021/11/26 13:23:27;;;;;;;;;;;16.70;99.90;;;;;;5105408;28;1062;-52
2021/11/26 13:25:54;;;;;;;;;;;16.70;99.90;;;;;;5096419;28;1074;-53
2021/11/26 13:28:23;;;;;;;;;;;16.60;99.90;;;;;;5096787;28;820;-52
2021/11/26 13:30:53;;;;;;;;;;;16.60;99.90;;;;;;5096183;28;792;-53
2021/11/26 13:33:38;;;;;;;;;;;16.50;99.90;;;;;;5096061;28;829;-53
2021/11/26 13:36:30;;;;;;;;;;;16.50;99.90;;;;;;5095575;28;852;-54
2021/11/26 13:39:17;;;;;;;;;;;16.50;99.90;;;;;;5108064;28;1961;-53
2021/11/26 13:41:47;;;;;;;;;;;16.40;99.90;;;;;;5096496;28;746;-54
2021/11/26 13:44:13;;;;;;;;;;;16.40;99.90;;;;;;5096458;28;1106;-54
2021/11/26 13:46:41;;;;;;;;;;;16.40;99.90;;;;;;5108574;28;1137;-54
2021/11/26 13:49:11;;;;;;;;;;;16.40;99.90;;;;;;5110626;28;1423;-54
2021/11/26 13:51:45;;;;;;;;;;;16.40;99.90;;;;;;5110963;28;1371;-53
2021/11/26 13:54:12;;;;;;;;;;;16.50;99.90;;;;;;5102346;28;1185;-55
2021/11/26 13:56:40;;;;;;;;;;;16.50;99.90;;;;;;5103613;28;1212;-55
2021/11/26 13:59:08;;;;;;;;;;;16.50;99.90;;;;;;5108772;28;1965;-54
2021/11/26 14:01:35;;;;;;;;;;;16.60;99.90;;;;;;5103032;28;1110;-54
2021/11/26 14:04:05;;;;;;;;;;;16.60;99.90;;;;;;5104949;28;1170;-54
2021/11/26 14:06:32;;;;;;;;;;;16.70;99.90;;;;;;5113151;28;1656;-55
2021/11/26 14:09:02;;;;;;;;;;;16.70;99.90;;;;;;5106368;28;1442;-53
2021/11/26 14:11:28;;;;;;;;;;;16.70;99.90;;;;;;5111492;28;1006;-53
2021/11/26 14:13:54;;;;;;;;;;;16.80;99.90;;;;;;5103300;28;995;-54
2021/11/26 14:16:22;;;;;;;;;;;16.90;99.90;;;;;;5099859;28;896;-54
2021/11/26 14:18:51;;;;;;;;;;;16.90;99.90;;;;;;5117301;28;1905;-54
2021/11/26 14:21:19;;;;;;;;;;;16.90;99.90;;;;;;5111540;28;1027;-54
2021/11/26 14:23:54;;;;;;;;;;;16.80;99.90;;;;;;5114574;28;991;-53
2021/11/26 14:26:21;;;;;;;;;;;16.80;99.90;;;;;;5094339;28;1087;-54
2021/11/26 14:28:49;;;;;;;;;;;16.80;99.90;;;;;;5091426;28;1293;-54
2021/11/26 14:31:15;;;;;;;;;;;16.90;99.90;;;;;;5099496;28;1137;-54
2021/11/26 14:33:41;;;;;;;;;;;17.20;99.90;;;;;;5100914;28;1138;-54
2021/11/26 14:36:09;;;;;;;;;;;17.50;99.90;;;;;;5099157;28;1121;-55
2021/11/26 14:38:45;;;;;;;;;;;17.70;99.90;;;;;;5097800;28;1973;-55
2021/11/26 14:41:14;;;;;;;;;;;17.70;99.90;;;;;;5102413;28;1161;-53
2021/11/26 14:44:13;;;;;;;;;;;17.60;99.90;;;;;;5062258;28;1383;-55
2021/11/26 14:47:07;;;;;;;;;;;17.50;99.90;;;;;;5005992;28;1426;-54
2021/11/26 14:49:51;;;;;;;;;;;17.20;99.90;;;;;;5004466;28;1195;-54
2021/11/26 14:52:25;;;;;;;;;;;17.00;99.90;;;;;;5002109;28;1006;-54
2021/11/26 14:54:53;;;;;;;;;;;16.90;99.90;;;;;;5019487;28;1097;-54
2021/11/26 14:57:22;;;;;;;;;;;16.80;99.90;;;;;;5006743;28;1079;-54